createdAt,value
2023-03-22T00:01:55.145Z,8.44
2023-03-22T00:04:26.154Z,8.43
2023-03-22T00:06:56.394Z,8.43
2023-03-22T00:09:26.802Z,8.42
2023-03-22T00:11:57.090Z,8.42
2023-03-22T00:14:27.454Z,8.42
2023-03-22T00:16:58.261Z,8.41
2023-03-22T00:19:29.195Z,8.41
2023-03-22T00:22:00.673Z,8.40
2023-03-22T00:24:30.990Z,8.38
2023-03-22T00:27:01.416Z,8.38
2023-03-22T00:29:31.702Z,8.37
2023-03-22T00:32:02.805Z,8.36
2023-03-22T00:34:34.714Z,8.34
2023-03-22T00:37:06.195Z,8.35
2023-03-22T00:39:36.831Z,8.34
2023-03-22T00:42:07.629Z,8.34
2023-03-22T00:44:38.061Z,8.33
2023-03-22T00:47:08.747Z,8.32
2023-03-22T00:49:39.082Z,8.32
2023-03-22T00:52:09.785Z,8.30
2023-03-22T00:54:40.901Z,8.30
2023-03-22T00:57:12.919Z,8.30
2023-03-22T00:59:43.492Z,8.30
2023-03-22T01:02:14.671Z,8.30
2023-03-22T01:04:47.921Z,8.29
2023-03-22T01:07:21.440Z,8.30
2023-03-22T01:09:52.447Z,8.29
2023-03-22T01:12:22.986Z,8.29
2023-03-22T01:14:53.381Z,8.29
2023-03-22T01:17:24.033Z,8.29
2023-03-22T01:19:54.827Z,8.29
2023-03-22T01:22:25.425Z,8.28
2023-03-22T01:24:57.801Z,8.27
2023-03-22T01:27:28.263Z,8.26
2023-03-22T01:29:58.732Z,8.26
2023-03-22T01:32:29.131Z,8.26
2023-03-22T01:34:59.620Z,8.26
2023-03-22T01:37:32.680Z,8.28
2023-03-22T01:40:04.181Z,8.28
2023-03-22T01:42:34.670Z,8.28
2023-03-22T01:45:36.513Z,8.28
2023-03-22T01:48:14.442Z,8.30
2023-03-22T01:50:49.663Z,8.31
2023-03-22T01:53:23.741Z,8.31
2023-03-22T01:55:56.700Z,8.32
2023-03-22T01:58:37.031Z,8.31
2023-03-22T02:01:11.015Z,8.31
2023-03-22T02:03:54.560Z,8.30
2023-03-22T02:06:27.040Z,8.31
2023-03-22T02:09:08.262Z,8.31
2023-03-22T02:11:41.688Z,8.30
2023-03-22T02:14:33.297Z,8.29
2023-03-22T02:17:32.085Z,8.27
2023-03-22T02:20:33.828Z,8.26
2023-03-22T02:23:31.635Z,8.26
2023-03-22T02:26:35.957Z,8.26
2023-03-22T02:29:12.756Z,8.27
2023-03-22T02:31:58.642Z,8.28
2023-03-22T02:34:48.520Z,8.28
2023-03-22T02:37:51.984Z,8.28
2023-03-22T02:40:29.880Z,8.27
2023-03-22T02:43:06.919Z,8.27
2023-03-22T02:45:37.934Z,8.27
2023-03-22T02:48:14.708Z,8.26
2023-03-22T02:50:52.581Z,8.26
2023-03-22T02:53:25.948Z,8.26
2023-03-22T02:56:00.473Z,8.26
2023-03-22T02:58:35.000Z,8.25
2023-03-22T03:01:13.666Z,8.25
2023-03-22T03:03:48.192Z,8.26
2023-03-22T03:06:21.664Z,8.27
2023-03-22T03:08:54.421Z,8.28
2023-03-22T03:11:25.200Z,8.26
2023-03-22T03:13:55.562Z,8.28
2023-03-22T03:16:30.082Z,8.29
2023-03-22T03:19:05.520Z,8.30
2023-03-22T03:21:46.467Z,8.30
2023-03-22T03:24:24.115Z,8.32
2023-03-22T03:27:03.479Z,8.33
2023-03-22T03:29:40.373Z,8.36
2023-03-22T03:32:17.848Z,8.36
2023-03-22T03:34:53.062Z,8.38
2023-03-22T03:37:27.171Z,8.39
2023-03-22T03:40:06.794Z,8.39
2023-03-22T03:42:42.470Z,8.40
2023-03-22T03:45:15.364Z,8.42
2023-03-22T03:47:48.186Z,8.43
2023-03-22T03:50:21.208Z,8.45
2023-03-22T03:52:52.293Z,8.44
2023-03-22T03:55:23.779Z,8.45
2023-03-22T03:57:54.154Z,8.46
2023-03-22T04:00:24.701Z,8.46
2023-03-22T04:03:13.779Z,8.46
2023-03-22T04:06:04.842Z,8.45
2023-03-22T04:08:38.462Z,8.44
2023-03-22T04:11:10.016Z,8.44
2023-03-22T04:13:40.540Z,8.43
2023-03-22T04:16:16.317Z,8.40
2023-03-22T04:18:46.611Z,8.37
2023-03-22T04:21:17.583Z,8.36
2023-03-22T04:23:53.665Z,8.33
2023-03-22T04:26:26.222Z,8.28
2023-03-22T04:29:19.873Z,8.23
2023-03-22T04:31:54.272Z,8.20
2023-03-22T04:34:27.732Z,8.16
2023-03-22T04:37:02.565Z,8.14
2023-03-22T04:39:38.726Z,8.12
2023-03-22T04:42:28.009Z,8.10
2023-03-22T04:45:14.771Z,8.09
2023-03-22T04:47:47.765Z,8.07
2023-03-22T04:50:19.324Z,8.06
2023-03-22T04:52:53.882Z,8.05
2023-03-22T04:55:24.265Z,8.04
2023-03-22T04:57:56.006Z,8.03
2023-03-22T05:00:30.389Z,8.02
2023-03-22T05:03:01.825Z,8.01
2023-03-22T05:05:53.370Z,8.01
2023-03-22T05:08:26.871Z,8.01
2023-03-22T05:10:59.138Z,8.02
2023-03-22T05:13:30.283Z,8.02
2023-03-22T05:16:01.361Z,8.02
2023-03-22T05:18:45.455Z,8.03
2023-03-22T05:21:22.202Z,8.06
2023-03-22T05:23:53.616Z,8.08
2023-03-22T05:26:26.315Z,8.11
2023-03-22T05:28:57.643Z,8.11
2023-03-22T05:31:41.742Z,8.10
2023-03-22T05:34:12.254Z,8.09
2023-03-22T05:36:43.037Z,8.09
2023-03-22T05:39:21.149Z,8.12
2023-03-22T05:41:51.781Z,8.14
2023-03-22T05:44:22.980Z,8.17
2023-03-22T05:47:13.319Z,8.20
2023-03-22T05:50:09.203Z,8.22
2023-03-22T05:52:39.616Z,8.24
2023-03-22T05:55:24.781Z,8.26
2023-03-22T05:57:59.158Z,8.28
2023-03-22T06:00:32.021Z,8.31
2023-03-22T06:03:21.523Z,8.36
2023-03-22T06:05:57.662Z,8.40
2023-03-22T06:08:39.374Z,8.43
2023-03-22T06:11:10.371Z,8.44
2023-03-22T06:13:40.851Z,8.48
2023-03-22T06:16:12.456Z,8.54
2023-03-22T06:18:46.141Z,8.59
2023-03-22T06:21:16.495Z,8.64
2023-03-22T06:23:48.593Z,8.71
2023-03-22T06:26:19.868Z,8.76
2023-03-22T06:28:50.887Z,8.80
2023-03-22T06:31:21.319Z,8.90
2023-03-22T06:33:58.990Z,9.05
2023-03-22T06:36:34.192Z,9.21
2023-03-22T06:39:11.379Z,9.37
2023-03-22T06:41:42.143Z,9.49
2023-03-22T06:44:12.575Z,9.66
2023-03-22T06:46:55.160Z,9.86
2023-03-22T06:49:36.456Z,10.05
2023-03-22T06:52:07.637Z,10.18
2023-03-22T06:54:38.633Z,10.20
2023-03-22T06:57:09.042Z,10.19
2023-03-22T06:59:40.176Z,10.19
2023-03-22T07:02:13.173Z,10.21
2023-03-22T07:04:46.183Z,10.25
2023-03-22T07:07:16.531Z,10.32
2023-03-22T07:09:46.982Z,10.37
2023-03-22T07:12:18.720Z,10.41
2023-03-22T07:14:50.409Z,10.49
2023-03-22T07:17:47.003Z,10.54
2023-03-22T07:20:17.608Z,10.58
2023-03-22T07:22:48.099Z,10.62
2023-03-22T07:25:18.762Z,10.65
2023-03-22T07:27:53.665Z,10.75
2023-03-22T07:30:24.893Z,10.83
2023-03-22T07:32:55.609Z,10.96
2023-03-22T07:35:27.005Z,11.11
2023-03-22T07:37:57.978Z,11.14
2023-03-22T07:40:32.657Z,11.15
2023-03-22T07:43:03.074Z,11.19
2023-03-22T07:45:45.990Z,11.25
2023-03-22T07:48:36.621Z,11.35
2023-03-22T07:51:21.680Z,11.44
2023-03-22T07:53:52.321Z,11.53
2023-03-22T07:56:24.143Z,11.63
2023-03-22T07:58:54.527Z,11.74
2023-03-22T08:01:25.719Z,11.86
2023-03-22T08:04:09.767Z,12.01
2023-03-22T08:07:12.227Z,12.16
2023-03-22T08:09:43.029Z,12.29
2023-03-22T08:12:15.000Z,12.39
2023-03-22T08:14:50.516Z,12.49
2023-03-22T08:17:23.714Z,12.59
2023-03-22T08:19:55.289Z,12.69
2023-03-22T08:22:29.989Z,12.73
2023-03-22T08:25:19.311Z,12.80
2023-03-22T08:27:50.282Z,12.86
2023-03-22T08:30:22.125Z,12.89
2023-03-22T08:32:53.275Z,12.94
2023-03-22T08:35:24.543Z,13.02
2023-03-22T08:37:57.504Z,13.12
2023-03-22T08:40:32.770Z,13.20
2023-03-22T08:43:07.338Z,13.30
2023-03-22T08:45:38.857Z,13.38
2023-03-22T08:48:14.213Z,13.47
2023-03-22T08:51:12.080Z,13.59
2023-03-22T08:53:52.440Z,13.72
2023-03-22T08:56:41.887Z,13.80
2023-03-22T08:59:21.270Z,13.80
2023-03-22T09:02:03.474Z,13.81
2023-03-22T09:04:34.827Z,13.87
2023-03-22T09:07:05.821Z,13.96
2023-03-22T09:09:36.495Z,14.01
2023-03-22T09:12:08.559Z,14.01
2023-03-22T09:14:39.490Z,14.01
2023-03-22T09:17:10.124Z,14.01
2023-03-22T09:19:40.500Z,14.03
2023-03-22T09:22:10.824Z,14.02
2023-03-22T09:24:46.159Z,14.09
2023-03-22T09:27:16.613Z,14.21
2023-03-22T09:29:47.188Z,14.30
2023-03-22T09:32:19.796Z,14.42
2023-03-22T09:34:56.642Z,14.49
2023-03-22T09:37:30.353Z,14.60
2023-03-22T09:40:01.288Z,14.69
2023-03-22T09:42:39.019Z,14.82
2023-03-22T09:45:14.428Z,14.92
2023-03-22T09:47:47.764Z,14.91
2023-03-22T09:50:22.292Z,14.95
2023-03-22T09:52:53.705Z,15.01
2023-03-22T09:55:33.290Z,15.02
2023-03-22T09:58:14.100Z,14.95
2023-03-22T10:00:49.065Z,14.82
2023-03-22T10:03:38.472Z,14.80
2023-03-22T10:06:13.279Z,14.81
2023-03-22T10:08:56.658Z,14.84
2023-03-22T10:11:40.361Z,14.92
2023-03-22T10:14:28.144Z,14.96
2023-03-22T10:17:03.774Z,15.02
2023-03-22T10:19:42.630Z,15.13
2023-03-22T10:22:17.497Z,15.27
2023-03-22T10:24:50.223Z,15.30
2023-03-22T10:27:22.768Z,15.36
2023-03-22T10:29:57.860Z,15.45
2023-03-22T10:32:37.407Z,15.49
2023-03-22T10:35:15.720Z,15.50
2023-03-22T10:37:49.086Z,15.54
2023-03-22T10:40:24.687Z,15.57
2023-03-22T10:42:57.974Z,15.66
2023-03-22T10:45:29.254Z,15.67
2023-03-22T10:48:06.069Z,15.73
2023-03-22T10:50:37.367Z,15.76
2023-03-22T10:53:13.411Z,15.85
2023-03-22T10:55:45.061Z,16.05
2023-03-22T10:58:18.743Z,16.28
2023-03-22T11:00:51.865Z,16.51
2023-03-22T11:03:31.749Z,16.70
2023-03-22T11:06:06.893Z,16.81
2023-03-22T11:08:48.707Z,16.84
2023-03-22T11:11:24.511Z,16.87
2023-03-22T11:14:01.003Z,16.87
2023-03-22T11:16:32.605Z,16.98
2023-03-22T11:19:04.550Z,17.03
2023-03-22T11:21:36.085Z,17.09
2023-03-22T11:24:09.175Z,17.29
2023-03-22T11:26:41.616Z,17.45
2023-03-22T11:29:17.946Z,17.55
2023-03-22T11:31:56.185Z,17.60
2023-03-22T11:34:30.070Z,17.62
2023-03-22T11:37:02.102Z,17.72
2023-03-22T11:39:32.620Z,17.83
2023-03-22T11:42:06.847Z,17.93
2023-03-22T11:44:38.643Z,17.98
2023-03-22T11:47:13.088Z,17.96
2023-03-22T11:49:48.056Z,17.95
2023-03-22T11:52:23.080Z,17.93
2023-03-22T11:54:55.162Z,17.89
2023-03-22T11:57:28.804Z,17.91
2023-03-22T12:00:07.106Z,17.93
2023-03-22T12:02:44.605Z,18.01
2023-03-22T12:05:20.142Z,17.97
2023-03-22T12:07:55.962Z,18.04
2023-03-22T12:10:30.862Z,18.06
2023-03-22T12:13:06.106Z,18.09
2023-03-22T12:15:42.278Z,18.11
2023-03-22T12:18:18.542Z,18.14
2023-03-22T12:20:54.982Z,18.23
2023-03-22T12:23:28.274Z,18.31
2023-03-22T12:26:03.421Z,18.37
2023-03-22T12:28:40.541Z,18.49
2023-03-22T12:31:18.242Z,18.62
2023-03-22T12:33:52.584Z,18.86
2023-03-22T12:36:27.906Z,19.85
2023-03-22T12:39:01.911Z,21.23
2023-03-22T12:41:36.658Z,22.51
2023-03-22T12:44:16.276Z,23.41
2023-03-22T12:46:52.328Z,24.05
2023-03-22T12:49:28.529Z,24.62
2023-03-22T12:52:13.142Z,24.28
2023-03-22T12:54:44.317Z,24.11
2023-03-22T12:57:16.222Z,24.09
2023-03-22T12:59:50.126Z,24.26
2023-03-22T13:02:27.363Z,24.10
2023-03-22T13:04:59.289Z,24.25
2023-03-22T13:07:51.604Z,24.75
2023-03-22T13:10:49.008Z,24.96
2023-03-22T13:13:32.807Z,25.41
2023-03-22T13:16:15.085Z,26.07
2023-03-22T13:21:43.431Z,26.85
2023-03-22T13:24:26.415Z,26.21
2023-03-22T13:27:00.167Z,25.07
2023-03-22T13:29:38.854Z,24.11
2023-03-22T13:32:30.076Z,23.37
2023-03-22T13:35:00.773Z,23.30
2023-03-22T13:37:36.897Z,23.62
2023-03-22T13:40:16.495Z,23.39
2023-03-22T13:42:47.077Z,23.58
2023-03-22T13:45:33.416Z,24.38
2023-03-22T13:48:12.775Z,24.57
2023-03-22T13:50:43.532Z,24.27
2023-03-22T13:53:21.975Z,23.71
2023-03-22T13:56:04.717Z,23.07
2023-03-22T13:58:41.192Z,22.61
2023-03-22T14:01:15.581Z,22.24
2023-03-22T14:03:49.220Z,21.76
2023-03-22T14:06:25.313Z,21.38
2023-03-22T14:08:59.688Z,21.08
2023-03-22T14:11:38.647Z,20.88
2023-03-22T14:14:15.766Z,20.58
2023-03-22T14:16:50.276Z,20.25
2023-03-22T14:19:24.154Z,20.02
